Fairchilds, Texas
Current Conditions -  °F | °C
As of 4:53 PM on Tuesday 21 Oct 2014 (Local Time) from KSGR Reporting Station
Clear Clear  
Wind Chill: 82°   Ceiling: Unl
Heat Index: 82°   Visibility: 10mi
Dew Point: 54°   Wind: 5mph
Humidity: 38%   Direction: NA
Pressure: 29.97"   Gusts: NA
Location:  29.3854°N, 95.8138°W
Report Text: KSGR 212153Z VRB04KT 10SM CLR 28/12 A2997 RMK AO2 SLP150 T02780122
Loading
Personal Weather Stations






























Interactive Weather Map
Tropical Storm Tracking
New forecast layout! Learn more

10-Day Weather Forecast

Advertisements
Track Severe Weather on mobile